Latest Weather Observations for Mount Hotham AWS

IDV60801

Issued at 12:35 pm EDT Sunday 26 October 2014 (issued every 30 minutes, with the page automatically refreshed every 10 minutes)

About weather observations | Map of weather stations | Latest weather observations for VIC | Other Formats
Station Details ID: 083085 Name: MOUNT HOTHAM Lat: -36.98 Lon: 147.13 Height: 1849.0 m
Data from the previous 72 hours. | See also: Recent months at Mount Hotham AWS
Date/Time
EDT
Temp
°C
App
Temp
°C
Dew
Point
Rel
Hum
%
Delta-T
°C
Wind Press
QNH
hPa
Press
MSL
hPa
Rain
since 9 am
mm
Dir
 
Spd
km/h
Gust
km/h
Spd
kts
Gust
kts
26/12:30pm 14.4 8.1 1.3 41 6.3 W 24 37 13 20 - - 0.0
26/12:00pm 14.1 7.2 0.4 39 6.5 W 26 35 14 19 - - 0.0
26/11:30am 13.8 6.9 0.1 39 6.4 W 26 44 14 24 - - 0.0
26/11:00am 13.7 7.6 0.4 40 6.2 W 22 32 12 17 - - 0.0
26/10:30am 13.5 7.5 -1.6 35 6.8 W 20 33 11 18 - - 0.0
26/10:00am 13.4 7.2 -0.6 38 6.4 W 22 37 12 20 - - 0.0
26/09:30am 12.7 6.7 -3.1 33 6.8 W 19 26 10 14 - - 0.0
26/09:00am 12.2 5.5 -4.0 32 6.8 W 22 30 12 16 - - 0.0
26/08:30am 11.8 4.7 -4.3 32 6.7 WSW 24 33 13 18 - - 0.0
26/08:00am 11.5 5.0 -5.9 29 7.0 W 20 30 11 16 - - 0.0
26/07:30am 10.8 3.7 -4.8 33 6.4 WNW 24 30 13 16 - - 0.0
26/07:00am 10.0 2.5 -1.7 44 5.1 WNW 28 37 15 20 - - 0.0
26/06:30am 9.7 1.9 -0.8 48 4.6 WNW 30 43 16 23 - - 0.0
26/06:00am 9.7 2.3 -0.5 49 4.5 WNW 28 37 15 20 - - 0.0
26/05:30am 9.5 2.8 1.7 58 3.6 WNW 26 32 14 17 - - 0.0
26/05:00am 10.0 2.9 1.6 56 3.9 WNW 28 33 15 18 - - 0.0
26/04:50am 9.9 3.0 2.5 60 3.5 WNW 28 46 15 25 - - 0.0
26/04:30am 10.3 3.4 2.7 59 3.7 WNW 28 41 15 22 - - 0.0
26/04:00am 10.2 3.4 3.3 62 3.4 NW 28 37 15 20 - - 0.0
26/03:30am 10.4 4.8 3.4 62 3.4 WNW 22 32 12 17 - - 0.0
26/03:00am 10.5 5.5 3.8 63 3.3 WNW 19 30 10 16 - - 0.0
26/02:30am 10.5 5.4 4.0 64 3.2 W 20 24 11 13 - - 0.0
26/02:00am 10.7 5.9 4.8 67 3.0 W 19 20 10 11 - - 0.0
26/01:30am 11.1 6.6 6.0 71 2.6 WNW 19 26 10 14 - - 0.0
26/01:00am 11.5 7.3 5.6 67 3.0 WNW 17 24 9 13 - - 0.0
26/12:30am 11.8 7.3 5.9 67 3.1 WNW 19 20 10 11 - - 0.0
26/12:00am 11.0 6.9 6.4 73 2.4 NW 17 20 9 11 - - 0.0
 
Date/Time
EDT
Temp
°C
App
Temp
°C
Dew
Point
Rel
Hum
%
Delta-T
°C
Wind Press
QNH
hPa
Press
MSL
hPa
Rain
since 9 am
mm
Dir
 
Spd
km/h
Gust
km/h
Spd
kts
Gust
kts
25/11:30pm 11.9 7.5 6.6 70 2.8 WNW 19 20 10 11 - - 0.0
25/11:00pm 11.7 7.4 7.0 73 2.5 NW 19 22 10 12 - - 0.0
25/10:30pm 11.2 6.9 6.9 75 2.3 NNW 19 20 10 11 - - 0.0
25/10:00pm 11.9 8.3 6.8 71 2.7 WNW 15 19 8 10 - - 0.0
25/09:30pm 12.4 7.8 5.8 64 3.4 WNW 19 24 10 13 - - 0.0
25/09:00pm 12.0 8.2 5.9 66 3.2 WNW 15 17 8 9 - - 0.0
25/08:30pm 12.2 7.4 5.8 65 3.3 NNW 20 24 11 13 - - 0.0
25/08:00pm 12.1 8.2 7.2 72 2.6 NNW 17 20 9 11 - - 0.0
25/07:30pm 12.5 7.6 7.0 69 2.9 NNW 22 30 12 16 - - 0.0
25/07:00pm 13.1 7.8 6.9 66 3.3 NW 24 30 13 16 - - 0.0
25/06:30pm 14.0 8.6 6.4 60 4.0 WNW 24 35 13 19 - - 0.0
25/06:00pm 14.2 6.9 5.6 56 4.5 NNW 33 44 18 24 - - 0.0
25/05:30pm 14.7 7.4 5.5 54 4.8 NNW 33 46 18 25 - - 0.0
25/05:00pm 15.4 8.5 6.4 55 4.8 NNW 32 43 17 23 - - 0.0
25/04:30pm 14.8 8.1 5.6 54 4.8 NW 30 44 16 24 - - 0.0
25/04:00pm 15.9 9.3 6.1 52 5.2 NW 30 44 16 24 - - 0.0
25/03:30pm 15.7 10.2 5.9 52 5.2 NW 24 39 13 21 - - 0.0
25/03:00pm 16.1 9.8 5.7 50 5.5 W 28 43 15 23 - - 0.0
25/02:30pm 16.7 10.3 5.3 47 6.0 WNW 28 37 15 20 - - 0.0
25/02:00pm 16.3 9.0 4.7 46 6.1 WNW 32 54 17 29 - - 0.0
25/01:49pm 16.6 9.8 4.9 46 6.1 WNW 30 52 16 28 - - 0.0
25/01:30pm 16.6 10.3 5.6 48 5.9 WNW 28 39 15 21 - - 0.0
25/01:00pm 15.8 8.6 5.1 49 5.6 WNW 32 44 17 24 - - 0.0
25/12:30pm 15.9 9.4 4.6 47 5.9 WNW 28 44 15 24 - - 0.0
25/12:00pm 16.4 10.2 4.1 44 6.3 W 26 39 14 21 - - 0.0
25/11:30am 15.5 8.0 4.5 48 5.7 WSW 33 48 18 26 - - 0.0
25/11:00am 15.1 8.1 3.9 47 5.7 WSW 30 43 16 23 - - 0.0
25/10:38am 14.9 7.4 3.7 47 5.7 WSW 32 52 17 28 - - 0.0
25/10:30am 14.7 7.2 4.4 50 5.3 WSW 33 48 18 26 - - 0.0
25/10:00am 14.0 6.5 3.2 48 5.4 WSW 32 44 17 24 - - 0.0
25/09:30am 13.5 6.6 2.4 47 5.4 WSW 28 43 15 23 - - 0.0
25/09:00am 12.8 6.3 2.6 50 5.0 WSW 26 37 14 20 - - 0.0
25/08:30am 12.4 6.3 2.8 52 4.7 WSW 24 41 13 22 - - 0.0
25/08:00am 11.7 6.0 2.7 54 4.4 W 22 33 12 18 - - 0.0
25/07:30am 11.1 4.9 2.4 55 4.2 W 24 33 13 18 - - 0.0
25/07:00am 10.5 3.9 2.1 56 4.0 W 26 37 14 20 - - 0.0
25/06:30am 10.5 3.5 1.9 55 4.1 W 28 37 15 20 - - 0.0
25/06:00am 10.4 3.6 1.0 52 4.4 WNW 26 37 14 20 - - 0.0
25/05:30am 10.8 3.6 0.8 50 4.6 WNW 28 46 15 25 - - 0.0
25/05:11am 10.9 3.7 0.9 50 4.6 WNW 28 46 15 25 - - 0.0
25/05:00am 11.0 3.8 1.0 50 4.7 WNW 28 39 15 21 - - 0.0
25/04:30am 10.7 3.5 0.4 49 4.7 WNW 28 37 15 20 - - 0.0
25/04:00am 10.7 3.4 -0.1 47 4.9 WNW 28 35 15 19 - - 0.0
25/03:39am 11.2 3.9 0.0 46 5.1 WNW 28 46 15 25 - - 0.0
25/03:30am 10.9 3.6 0.0 47 5.0 NW 28 44 15 24 - - 0.0
25/03:16am 10.9 3.6 -0.2 46 5.0 NW 28 46 15 25 - - 0.0
25/03:00am 11.1 3.0 -0.1 46 5.1 NW 32 43 17 23 - - 0.0
25/02:30am 11.2 2.7 0.6 48 4.9 NW 35 54 19 29 - - 0.0
25/02:24am 11.3 3.2 0.7 48 4.9 NW 33 54 18 29 - - 0.0
25/02:00am 10.8 3.7 1.6 53 4.3 NW 28 43 15 23 - - 0.0
25/01:30am 10.9 3.8 3.5 60 3.6 NW 30 46 16 25 - - 0.0
25/01:24am 10.9 4.1 3.0 58 3.8 NW 28 46 15 25 - - 0.0
25/01:00am 10.7 4.9 4.4 65 3.1 WNW 24 30 13 16 - - 0.0
25/12:30am 10.7 5.5 5.3 69 2.8 WNW 22 30 12 16 - - 0.0
25/12:00am 10.5 5.0 5.9 73 2.4 WNW 24 32 13 17 - - 0.0
 
Date/Time
EDT
Temp
°C
App
Temp
°C
Dew
Point
Rel
Hum
%
Delta-T
°C
Wind Press
QNH
hPa
Press
MSL
hPa
Rain
since 9 am
mm
Dir
 
Spd
km/h
Gust
km/h
Spd
kts
Gust
kts
24/11:30pm 10.6 5.5 5.8 72 2.5 WNW 22 30 12 16 - - 0.0
24/11:00pm 10.9 5.9 6.6 75 2.3 WNW 22 30 12 16 - - 0.0
24/10:30pm 11.2 6.2 6.3 72 2.6 WNW 22 33 12 18 - - 0.0
24/10:00pm 11.1 5.8 6.6 74 2.4 W 24 32 13 17 - - 0.0
24/09:30pm 11.0 4.5 6.4 73 2.4 WNW 30 39 16 21 - - 0.0
24/09:00pm 11.6 5.9 6.5 71 2.7 WNW 26 33 14 18 - - 0.0
24/08:30pm 11.5 5.8 6.8 73 2.5 WNW 26 35 14 19 - - 0.0
24/08:00pm 11.7 5.8 5.6 66 3.1 WNW 26 35 14 19 - - 0.0
24/07:30pm 12.3 5.5 5.0 61 3.7 WNW 30 39 16 21 - - 0.0
24/07:00pm 12.7 5.6 5.6 62 3.7 NW 32 44 17 24 - - 0.0
24/06:30pm 13.8 6.9 6.4 61 3.9 NW 32 43 17 23 - - 0.0
24/06:00pm 14.1 9.0 6.2 59 4.2 WNW 22 33 12 18 - - 0.0
24/05:30pm 13.9 7.8 6.7 62 3.9 WNW 28 39 15 21 - - 0.0
24/05:00pm 14.7 8.2 6.5 58 4.4 NW 30 43 16 23 - - 0.0
24/04:57pm 14.7 7.6 6.5 58 4.4 NW 33 52 18 28 - - 0.0
24/04:30pm 14.6 7.7 6.4 58 4.4 WNW 32 48 17 26 - - 0.0
24/04:00pm 15.9 7.9 7.4 57 4.7 NW 39 61 21 33 - - 0.0
24/03:30pm 14.2 5.9 7.7 65 3.6 NW 41 59 22 32 - - 0.0
24/03:25pm 14.2 5.9 7.9 66 3.5 NW 41 59 22 32 - - 0.0
24/03:00pm 13.7 5.8 7.9 68 3.2 NW 39 56 21 30 - - 0.0
24/02:30pm 13.8 5.9 7.8 67 3.3 NW 39 52 21 28 - - 0.0
24/02:00pm 15.3 7.1 8.3 63 3.9 NW 41 63 22 34 - - 0.0
24/01:34pm 15.4 6.7 7.7 60 4.2 NNW 43 63 23 34 - - 0.0
24/01:30pm 15.6 6.9 7.6 59 4.4 NW 43 59 23 32 - - 0.0
24/01:02pm 14.4 5.4 7.2 62 3.9 NNW 44 63 24 34 - - 0.0
24/01:00pm 14.9 5.7 8.2 64 3.7 NNW 46 63 25 34 - - 0.0
24/12:50pm 14.3 5.1 7.8 65 3.6 NNW 46 65 25 35 - - 0.0
24/12:30pm 13.8 4.6 8.0 68 3.2 NNW 46 61 25 33 - - 0.0
24/12:06pm 13.9 4.5 7.0 63 3.7 NNW 46 65 25 35 - - 0.0
24/12:00pm 13.8 4.4 7.1 64 3.6 NNW 46 63 25 34 - - 0.0
24/11:30am 14.1 4.5 7.9 66 3.4 NNW 48 61 26 33 - - 0.0
24/11:00am 13.1 2.9 7.1 67 3.2 NNW 50 69 27 37 - - 0.0
24/10:52am 12.6 2.3 6.4 66 3.3 NNW 50 69 27 37 - - 0.0
24/10:30am 13.0 3.2 7.2 68 3.1 NNW 48 59 26 32 - - 0.0
24/10:08am 12.7 3.2 6.7 67 3.2 NNW 46 65 25 35 - - 0.0
24/10:00am 12.1 2.2 6.4 68 3.0 NNW 48 61 26 33 - - 0.0
24/09:30am 11.7 1.7 6.2 69 2.9 NNW 48 65 26 35 - - 0.0
24/09:28am 11.9 2.3 6.4 69 2.9 NNW 46 65 25 35 - - 0.0
24/09:00am 11.6 1.2 6.1 69 2.9 NNW 50 63 27 34 - - 0.0
24/08:30am 10.9 0.5 5.9 71 2.6 NNW 50 63 27 34 - - 0.0
24/08:00am 10.8 -1.0 5.8 71 2.6 N 57 82 31 44 - - 0.0
24/07:30am 10.4 -2.6 5.6 72 2.5 NNW 63 85 34 46 - - 0.0
24/07:00am 10.4 -1.8 5.4 71 2.5 NNW 59 80 32 43 - - 0.0
24/06:30am 10.2 -0.7 5.6 73 2.3 NNW 52 70 28 38 - - 0.0
24/06:24am 10.2 -0.7 5.4 72 2.4 NNW 52 70 28 38 - - 0.0
24/06:00am 10.1 -0.4 5.5 73 2.3 N 50 59 27 32 - - 0.0
24/05:30am 10.5 -0.4 5.5 71 2.6 N 52 63 28 34 - - 0.0
24/05:00am 10.6 0.1 5.4 70 2.7 N 50 61 27 33 - - 0.0
24/04:30am 10.8 -0.1 5.6 70 2.7 N 52 67 28 36 - - 0.0
24/04:00am 10.9 0.4 5.4 69 2.8 N 50 57 27 31 - - 0.0
24/03:38am 11.0 1.2 5.3 68 2.9 N 46 65 25 35 - - 0.0
24/03:30am 11.2 1.0 5.3 67 3.0 N 48 59 26 32 - - 0.0
24/03:00am 11.4 1.3 5.5 67 3.0 N 48 59 26 32 - - 0.0
24/02:30am 11.8 1.3 5.7 66 3.2 N 50 63 27 34 - - 0.0
24/02:00am 12.0 1.9 5.6 65 3.3 N 48 59 26 32 - - 0.0
24/01:30am 12.2 3.0 6.3 67 3.1 N 44 57 24 31 - - 0.0
24/01:00am 12.6 4.1 6.9 68 3.0 N 41 52 22 28 - - 0.0
24/12:30am 13.2 4.7 7.0 66 3.3 N 41 50 22 27 - - 0.0
24/12:00am 13.3 5.5 6.6 64 3.6 N 37 46 20 25 - - 0.0
 
Date/Time
EDT
Temp
°C
App
Temp
°C
Dew
Point
Rel
Hum
%
Delta-T
°C
Wind Press
QNH
hPa
Press
MSL
hPa
Rain
since 9 am
mm
Dir
 
Spd
km/h
Gust
km/h
Spd
kts
Gust
kts
23/11:30pm 12.9 5.9 6.9 67 3.2 N 33 37 18 20 - - 0.0
23/11:00pm 12.9 6.9 7.1 68 3.1 N 28 32 15 17 - - 0.0
23/10:30pm 13.0 7.0 7.0 67 3.2 NNW 28 32 15 17 - - 0.0
23/10:00pm 12.6 8.2 7.5 71 2.8 N 20 22 11 12 - - 0.0
23/09:30pm 12.2 9.2 7.9 75 2.3 N 13 17 7 9 - - 0.0
23/09:00pm 10.5 8.4 9.6 94 0.5 NNE 11 15 6 8 - - 0.0
23/08:30pm 10.2 7.4 10.0 99 0.1 NE 15 20 8 11 - - 0.0
23/08:00pm 10.7 8.0 10.5 99 0.1 ENE 15 19 8 10 - - 0.0
23/07:30pm 11.6 10.2 11.0 96 0.3 NNE 9 13 5 7 - - 0.0
23/07:00pm 14.3 11.0 6.4 59 4.2 NW 13 19 7 10 - - 0.0
23/06:30pm 15.0 11.6 6.0 55 4.8 WNW 13 17 7 9 - - 0.0
23/06:00pm 15.4 11.3 6.4 55 4.8 NW 17 32 9 17 - - 0.0
23/05:30pm 16.0 11.7 7.0 55 4.9 NNW 19 28 10 15 - - 0.0
23/05:00pm 17.0 12.8 8.2 56 4.9 NNW 20 28 11 15 - - 0.0
23/04:30pm 16.3 11.9 7.3 55 4.9 NNW 20 32 11 17 - - 0.0
23/04:00pm 17.0 13.7 8.2 56 4.9 WNW 15 17 8 9 - - 0.0
23/03:30pm 17.9 13.3 6.7 48 6.1 NW 20 39 11 21 - - 0.0
23/03:00pm 17.4 11.8 5.4 45 6.4 NNW 24 35 13 19 - - 0.0
23/02:30pm 17.5 13.6 7.0 50 5.8 NNW 17 28 9 15 - - 0.0
23/02:00pm 16.5 12.6 6.9 53 5.2 NNW 17 28 9 15 - - 0.0
23/01:30pm 16.8 13.3 7.4 54 5.2 WNW 15 28 8 15 - - 0.0
23/01:00pm 17.2 13.4 7.5 53 5.4 WNW 17 26 9 14 - - 0.0

Other Formats:

Comma delimited format used in spreadsheet applications
http://www.bom.gov.au/fwo/IDV60801/IDV60801.94906.axf

JavaScript Object Notation format (JSON) in row-major order
http://www.bom.gov.au/fwo/IDV60801/IDV60801.94906.json